createdAt,value
2019-01-09T00:03:27.590Z,97
2019-01-09T00:08:27.553Z,97
2019-01-09T00:13:27.972Z,97
2019-01-09T00:18:27.498Z,97
2019-01-09T00:23:27.943Z,97
2019-01-09T00:28:27.364Z,97
2019-01-09T00:33:27.791Z,97
2019-01-09T00:38:27.327Z,97
2019-01-09T00:43:27.795Z,97
2019-01-09T00:48:28.107Z,97
2019-01-09T00:53:27.486Z,97
2019-01-09T00:58:28.043Z,97
2019-01-09T01:03:27.682Z,97
2019-01-09T01:08:27.508Z,97
2019-01-09T01:13:27.878Z,97
2019-01-09T01:18:27.359Z,97
2019-01-09T01:23:27.705Z,97
2019-01-09T01:28:28.079Z,97
2019-01-09T01:33:27.718Z,97
2019-01-09T01:38:28.036Z,97
2019-01-09T01:43:27.429Z,97
2019-01-09T01:48:27.853Z,97
2019-01-09T01:53:27.276Z,97
2019-01-09T01:58:27.591Z,97
2019-01-09T02:03:28.166Z,97
2019-01-09T02:08:28.114Z,97
2019-01-09T02:13:27.483Z,97
2019-01-09T02:18:27.893Z,97
2019-01-09T02:23:27.285Z,97
2019-01-09T02:28:27.664Z,97
2019-01-09T02:33:28.054Z,97
2019-01-09T02:38:27.336Z,97
2019-01-09T02:43:27.878Z,97
2019-01-09T02:48:27.377Z,97
2019-01-09T02:53:28.126Z,97
2019-01-09T02:58:27.561Z,97
2019-01-09T03:03:28.123Z,96
2019-01-09T03:08:27.737Z,96
2019-01-09T03:13:28.338Z,96
2019-01-09T03:18:27.921Z,96
2019-01-09T03:23:28.289Z,96
2019-01-09T03:28:27.652Z,96
2019-01-09T03:33:28.101Z,96
2019-01-09T03:38:27.662Z,96
2019-01-09T03:43:28.185Z,95
2019-01-09T03:48:27.694Z,95
2019-01-09T03:53:28.145Z,95
2019-01-09T03:58:27.552Z,95
2019-01-09T04:03:28.110Z,94
2019-01-09T04:08:27.505Z,94
2019-01-09T04:13:27.887Z,94
2019-01-09T04:18:28.212Z,94
2019-01-09T04:23:27.591Z,94
2019-01-09T04:28:27.939Z,94
2019-01-09T04:33:28.487Z,93
2019-01-09T04:38:28.032Z,93
2019-01-09T04:43:27.481Z,93
2019-01-09T04:48:27.886Z,93
2019-01-09T04:53:28.304Z,93
2019-01-09T04:58:27.680Z,93
2019-01-09T05:03:28.306Z,92
2019-01-09T05:08:28.128Z,92
2019-01-09T05:13:27.619Z,93
2019-01-09T05:18:28.201Z,93
2019-01-09T05:23:27.724Z,92
2019-01-09T05:28:28.319Z,92
2019-01-09T05:33:28.095Z,92
2019-01-09T05:38:27.638Z,92
2019-01-09T05:43:28.249Z,92
2019-01-09T05:48:27.696Z,92
2019-01-09T05:53:28.161Z,92
2019-01-09T05:58:28.485Z,92
2019-01-09T06:03:28.063Z,92
2019-01-09T06:08:27.605Z,92
2019-01-09T06:13:28.182Z,91
2019-01-09T06:18:27.796Z,91
2019-01-09T06:23:28.342Z,90
2019-01-09T06:28:27.821Z,90
2019-01-09T06:33:28.360Z,89
2019-01-09T06:38:27.764Z,89
2019-01-09T06:43:28.252Z,89
2019-01-09T06:48:27.717Z,89
2019-01-09T06:53:28.237Z,89
2019-01-09T06:58:27.639Z,89
2019-01-09T07:03:28.390Z,89
2019-01-09T07:08:28.066Z,89
2019-01-09T07:13:28.458Z,90
2019-01-09T07:18:28.490Z,90
2019-01-09T07:23:28.146Z,90
2019-01-09T07:28:28.589Z,90
2019-01-09T07:33:28.221Z,90
2019-01-09T07:38:28.570Z,90
2019-01-09T07:43:28.045Z,91
2019-01-09T07:48:27.731Z,91
2019-01-09T07:53:28.180Z,92
2019-01-09T07:58:28.558Z,92
2019-01-09T08:03:28.191Z,92
2019-01-09T08:08:28.392Z,92
2019-01-09T08:13:28.509Z,93
2019-01-09T08:18:27.936Z,93
2019-01-09T08:23:28.506Z,93
2019-01-09T08:28:28.059Z,93
2019-01-09T08:33:28.543Z,94
2019-01-09T08:38:27.997Z,94
2019-01-09T08:43:28.442Z,94
2019-01-09T08:48:27.865Z,94
2019-01-09T08:53:28.751Z,94
2019-01-09T08:58:28.221Z,94
2019-01-09T09:03:28.803Z,94
2019-01-09T09:08:28.611Z,94
2019-01-09T09:13:28.072Z,94
2019-01-09T09:18:28.511Z,94
2019-01-09T09:23:28.159Z,95
2019-01-09T09:28:28.620Z,95
2019-01-09T09:33:27.997Z,95
2019-01-09T09:38:27.848Z,95
2019-01-09T09:43:28.264Z,95
2019-01-09T09:48:28.680Z,95
2019-01-09T09:53:28.113Z,95
2019-01-09T09:58:28.556Z,95
2019-01-09T10:03:28.055Z,95
2019-01-09T10:08:29.499Z,95
2019-01-09T10:13:28.669Z,95
2019-01-09T10:18:28.092Z,95
2019-01-09T10:23:28.632Z,95
2019-01-09T10:28:28.171Z,95
2019-01-09T10:33:28.739Z,96
2019-01-09T10:38:28.283Z,96
2019-01-09T10:43:28.850Z,96
2019-01-09T10:48:28.303Z,96
2019-01-09T10:53:28.762Z,96
2019-01-09T10:58:28.252Z,96
2019-01-09T11:03:28.922Z,96
2019-01-09T11:08:28.496Z,96
2019-01-09T11:13:28.076Z,96
2019-01-09T11:18:28.512Z,96
2019-01-09T11:23:28.253Z,96
2019-01-09T11:28:28.745Z,96
2019-01-09T11:33:28.312Z,96
2019-01-09T11:38:28.852Z,96
2019-01-09T11:43:28.359Z,96
2019-01-09T11:48:28.796Z,96
2019-01-09T11:53:28.446Z,96
2019-01-09T11:58:28.774Z,96
2019-01-09T12:03:28.299Z,96
2019-01-09T12:08:28.022Z,96
2019-01-09T12:13:28.459Z,96
2019-01-09T12:18:28.994Z,96
2019-01-09T12:23:28.510Z,96
2019-01-09T12:28:28.923Z,96
2019-01-09T12:33:28.513Z,96
2019-01-09T12:38:28.870Z,96
2019-01-09T12:43:28.358Z,96
2019-01-09T12:48:28.700Z,96
2019-01-09T12:53:33.784Z,96
2019-01-09T12:58:28.786Z,96
2019-01-09T13:03:28.264Z,96
2019-01-09T13:08:28.479Z,96
2019-01-09T13:13:28.398Z,96
2019-01-09T13:18:28.824Z,96
2019-01-09T13:23:28.276Z,95
2019-01-09T13:28:28.426Z,95
2019-01-09T13:33:28.860Z,94
2019-01-09T13:38:28.283Z,94
2019-01-09T13:43:28.722Z,93
2019-01-09T13:48:28.325Z,93
2019-01-09T13:53:28.720Z,93
2019-01-09T13:58:28.218Z,93
2019-01-09T14:03:28.984Z,93
2019-01-09T14:08:28.700Z,93
2019-01-09T14:13:28.368Z,92
2019-01-09T14:18:28.778Z,92
2019-01-09T14:23:28.319Z,91
2019-01-09T14:28:28.803Z,91
2019-01-09T14:33:28.294Z,90
2019-01-09T14:38:28.641Z,90
2019-01-09T14:43:29.024Z,90
2019-01-09T14:48:28.369Z,90
2019-01-09T14:53:28.364Z,89
2019-01-09T14:58:28.815Z,89
2019-01-09T15:03:28.590Z,89
2019-01-09T15:08:28.702Z,89
2019-01-09T15:13:28.934Z,89
2019-01-09T15:18:28.253Z,89
2019-01-09T15:23:28.743Z,89
2019-01-09T15:28:29.137Z,89
2019-01-09T15:33:28.964Z,88
2019-01-09T15:38:28.448Z,88
2019-01-09T15:43:28.894Z,88
2019-01-09T15:48:28.267Z,88
2019-01-09T15:53:29.002Z,88
2019-01-09T15:58:28.317Z,88
2019-01-09T16:03:28.830Z,88
2019-01-09T16:08:28.400Z,88
2019-01-09T16:13:29.170Z,89
2019-01-09T16:18:28.627Z,89
2019-01-09T16:23:29.062Z,89
2019-01-09T16:28:28.476Z,89
2019-01-09T16:33:29.184Z,90
2019-01-09T16:38:28.493Z,90
2019-01-09T16:43:28.933Z,90
2019-01-09T16:48:28.474Z,90
2019-01-09T16:53:28.860Z,90
2019-01-09T16:58:28.715Z,90
2019-01-09T17:03:29.230Z,91
2019-01-09T17:08:28.846Z,91
2019-01-09T17:13:29.054Z,90
2019-01-09T17:18:28.486Z,90
2019-01-09T17:23:29.011Z,90
2019-01-09T17:28:28.847Z,90
2019-01-09T17:33:28.807Z,89
2019-01-09T17:38:29.174Z,89
2019-01-09T17:43:28.568Z,89
2019-01-09T17:48:28.994Z,89
2019-01-09T17:53:28.555Z,89
2019-01-09T17:58:28.935Z,89
2019-01-09T18:03:28.519Z,89
2019-01-09T18:08:29.009Z,89
2019-01-09T18:13:28.829Z,89
2019-01-09T18:18:29.297Z,89
2019-01-09T18:23:29.215Z,89
2019-01-09T18:28:28.672Z,89
2019-01-09T18:33:29.140Z,89
2019-01-09T18:38:29.118Z,89
2019-01-09T18:43:28.507Z,89
2019-01-09T18:48:28.924Z,89
2019-01-09T18:53:28.511Z,89
2019-01-09T18:58:28.882Z,89
2019-01-09T19:03:29.385Z,89
2019-01-09T19:08:29.240Z,89
2019-01-09T19:13:28.505Z,88
2019-01-09T19:18:29.000Z,88
2019-01-09T19:23:28.531Z,88
2019-01-09T19:28:28.870Z,88
2019-01-09T19:33:29.327Z,88
2019-01-09T19:38:28.842Z,88
2019-01-09T19:43:29.172Z,88
2019-01-09T19:48:28.529Z,88
2019-01-09T19:53:28.810Z,88
2019-01-09T19:58:29.175Z,88
2019-01-09T20:03:28.569Z,88
2019-01-09T20:08:29.124Z,88
2019-01-09T20:13:28.829Z,88
2019-01-09T20:18:29.150Z,88
2019-01-09T20:23:28.529Z,87
2019-01-09T20:28:28.911Z,87
2019-01-09T20:33:29.665Z,87
2019-01-09T20:38:29.091Z,87
2019-01-09T20:43:29.572Z,87
2019-01-09T20:48:28.940Z,87
2019-01-09T20:53:29.320Z,87
2019-01-09T20:58:28.703Z,87
2019-01-09T21:03:29.212Z,87
2019-01-09T21:08:28.737Z,87
2019-01-09T21:13:29.143Z,87
2019-01-09T21:18:29.487Z,87
2019-01-09T21:23:28.891Z,86
2019-01-09T21:28:29.253Z,86
2019-01-09T21:33:28.911Z,86
2019-01-09T21:38:29.173Z,86
2019-01-09T21:43:28.925Z,86
2019-01-09T21:48:29.332Z,86
2019-01-09T21:53:28.674Z,87
2019-01-09T21:58:28.947Z,87
2019-01-09T22:03:29.486Z,86
2019-01-09T22:08:29.112Z,86
2019-01-09T22:13:29.076Z,86
2019-01-09T22:18:29.439Z,86
2019-01-09T22:23:28.855Z,87
2019-01-09T22:28:29.221Z,87
2019-01-09T22:33:28.876Z,86
2019-01-09T22:38:29.147Z,86
2019-01-09T22:43:29.486Z,86
2019-01-09T22:48:28.862Z,86
2019-01-09T22:53:29.449Z,86
2019-01-09T22:58:28.786Z,86
2019-01-09T23:03:29.009Z,87
2019-01-09T23:08:29.000Z,87
2019-01-09T23:13:28.978Z,86
2019-01-09T23:18:29.348Z,86
2019-01-09T23:23:29.001Z,86
2019-01-09T23:28:29.347Z,86
2019-01-09T23:33:29.753Z,85
2019-01-09T23:38:29.213Z,85
2019-01-09T23:43:29.549Z,85
2019-01-09T23:48:28.909Z,85
2019-01-09T23:53:29.598Z,85
2019-01-09T23:58:28.975Z,85
